METAR Data
IDs: Format: Raw Decoded Include TAF

Data at: 2058 UTC 26 May 2019

METAR for:KAOH (Lima/Allen Cnty, OH, US)
Text:KAOH 262053Z AUTO 30009KT 10SM OVC070 23/18 A3003 RMK AO2 RAE1958 SLP165 P0000 60000 T02280183 55007
Temperature: 22.8°C ( 73°F)
Dewpoint: 18.3°C ( 65°F) [RH = 76%]
Pressure (altimeter):30.03 inches Hg (1017.0 mb) [Sea level pressure: 1016.5 mb]
Winds:from the WNW (300 degrees) at 10 MPH (9 knots; 4.6 m/s)
Visibility:10 or more sm (16+ km)
Ceiling:7000 feet AGL
Clouds: overcast cloud deck at 7000 feet AGL
QC Flag:automated observation with no human augmentation